Time;durP1;ratioP1;P1;durP2;ratioP2;P2;SDS_P1;SDS_P2;PMS_P1;PMS_P2;Temp;Humidity;BMP_temperature;BMP_pressure;BME280_temperature;BME280_humidity;BME280_pressure;Samples;Min_cycle;Max_cycle;Signal;HPM_P1;HPM_P2
2023/09/08 00:01:38;;;;;;;8.60;6.93;;;20.30;99.90;;;;;;5050796;28;20037;-75
2023/09/08 00:04:04;;;;;;;9.27;6.60;;;20.40;99.90;;;;;;5047215;28;20062;-75
2023/09/08 00:06:31;;;;;;;9.20;6.65;;;20.40;99.90;;;;;;5049226;28;20115;-75
2023/09/08 00:08:56;;;;;;;12.05;7.47;;;20.40;99.90;;;;;;5049100;28;20378;-75
2023/09/08 00:11:22;;;;;;;10.43;7.20;;;20.40;99.90;;;;;;5047972;28;20148;-75
2023/09/08 00:13:50;;;;;;;9.80;7.30;;;20.40;99.90;;;;;;5045909;28;20068;-75
2023/09/08 00:16:15;;;;;;;10.45;7.50;;;20.40;99.90;;;;;;5049525;28;20052;-75
2023/09/08 00:18:41;;;;;;;8.65;7.32;;;20.30;99.90;;;;;;5049493;28;20036;-75
2023/09/08 00:21:07;;;;;;;11.30;7.10;;;20.30;99.90;;;;;;5045651;28;20650;-75
2023/09/08 00:23:32;;;;;;;9.90;8.10;;;20.20;99.90;;;;;;5052023;28;20033;-75
2023/09/08 00:25:58;;;;;;;9.18;7.55;;;20.20;99.90;;;;;;5049048;28;20037;-75
2023/09/08 00:28:24;;;;;;;10.00;7.32;;;20.10;99.90;;;;;;5048112;28;20067;-75
2023/09/08 00:30:49;;;;;;;10.68;7.50;;;20.10;99.90;;;;;;5046608;28;20044;-75
2023/09/08 00:33:15;;;;;;;9.68;7.45;;;20.10;99.90;;;;;;5050264;28;20070;-75
2023/09/08 00:35:45;;;;;;;10.55;7.60;;;20.10;99.90;;;;;;5048584;28;20154;-75
2023/09/08 00:38:10;;;;;;;10.77;7.65;;;20.00;99.90;;;;;;5045786;28;20182;-75
2023/09/08 00:40:36;;;;;;;9.05;7.15;;;20.00;99.90;;;;;;5049244;28;20112;-75
2023/09/08 00:43:01;;;;;;;8.90;7.43;;;19.90;99.90;;;;;;5048271;28;20055;-75
2023/09/08 00:45:29;;;;;;;10.60;7.40;;;20.00;99.90;;;;;;5045828;28;20178;-75
2023/09/08 00:47:55;;;;;;;8.57;6.90;;;19.90;99.90;;;;;;5050574;28;20084;-75
2023/09/08 00:50:21;;;;;;;8.82;7.47;;;19.90;99.90;;;;;;5046456;28;20072;-75
2023/09/08 00:52:47;;;;;;;10.07;7.53;;;19.90;99.90;;;;;;5048528;28;20044;-75
2023/09/08 00:55:13;;;;;;;9.95;7.32;;;19.80;99.90;;;;;;5045425;28;20472;-75
2023/09/08 00:57:39;;;;;;;10.85;7.78;;;19.70;99.90;;;;;;5052296;28;20037;-75
2023/09/08 01:00:08;;;;;;;10.23;7.97;;;19.70;99.90;;;;;;5049999;28;20115;-75
2023/09/08 01:02:33;;;;;;;12.40;7.88;;;19.70;99.90;;;;;;5045742;28;20048;-75
2023/09/08 01:04:59;;;;;;;12.15;8.80;;;19.60;99.90;;;;;;5050855;28;20043;-76
2023/09/08 01:07:28;;;;;;;10.63;7.47;;;19.50;99.90;;;;;;5048482;28;20428;-76
2023/09/08 01:09:54;;;;;;;11.43;7.93;;;19.50;99.90;;;;;;5046550;28;20080;-76
2023/09/08 01:12:20;;;;;;;10.80;8.25;;;19.50;99.90;;;;;;5048578;28;20420;-76
2023/09/08 01:14:45;;;;;;;11.20;7.60;;;19.40;99.90;;;;;;5047913;28;20853;-75
2023/09/08 01:17:12;;;;;;;12.90;8.10;;;19.40;99.90;;;;;;5049106;28;20452;-75
2023/09/08 01:19:38;;;;;;;10.35;7.97;;;19.30;99.90;;;;;;5048714;28;20091;-75
2023/09/08 01:22:26;;;;;;;10.43;8.07;;;19.30;99.90;;;;;;5050566;28;20116;-75
2023/09/08 01:25:19;;;;;;;8.70;7.75;;;19.30;99.90;;;;;;5047116;28;20045;-75
2023/09/08 01:27:53;;;;;;;10.57;8.05;;;19.20;99.90;;;;;;5046120;28;20052;-75
2023/09/08 01:30:21;;;;;;;10.25;8.38;;;19.20;99.90;;;;;;5045074;28;20037;-75
2023/09/08 01:32:47;;;;;;;10.98;8.57;;;19.10;99.90;;;;;;5051167;28;20052;-75
2023/09/08 01:35:13;;;;;;;10.48;8.13;;;19.10;99.90;;;;;;5049803;28;20041;-75
2023/09/08 01:37:46;;;;;;;10.35;8.25;;;19.10;99.90;;;;;;5045183;28;20049;-75
2023/09/08 01:40:12;;;;;;;12.23;8.95;;;19.00;99.90;;;;;;5039193;28;20473;-75
2023/09/08 01:42:39;;;;;;;10.35;8.02;;;19.00;99.90;;;;;;5048883;28;20064;-75
2023/09/08 01:45:05;;;;;;;12.85;8.88;;;19.00;99.90;;;;;;5065427;28;20048;-76
2023/09/08 01:47:31;;;;;;;10.73;8.20;;;18.90;99.90;;;;;;5054192;28;20552;-75
2023/09/08 01:49:57;;;;;;;10.23;8.45;;;18.90;99.90;;;;;;5066297;28;20102;-76
2023/09/08 01:52:23;;;;;;;11.48;8.82;;;18.90;99.90;;;;;;5063456;28;20484;-76
2023/09/08 01:54:52;;;;;;;10.75;8.52;;;18.90;99.90;;;;;;5060213;28;20060;-76
2023/09/08 01:57:18;;;;;;;10.43;8.07;;;18.80;99.90;;;;;;5057934;28;20073;-76
2023/09/08 01:59:44;;;;;;;9.60;8.55;;;18.80;99.90;;;;;;5047073;28;20068;-75
2023/09/08 02:02:11;;;;;;;11.60;8.27;;;18.70;99.90;;;;;;5065017;28;20048;-76
2023/09/08 02:04:37;;;;;;;9.65;8.65;;;18.70;99.90;;;;;;5061586;28;20049;-76
2023/09/08 02:07:04;;;;;;;12.35;8.13;;;18.70;99.90;;;;;;5068884;28;20484;-76
2023/09/08 02:09:38;;;;;;;10.68;9.07;;;18.60;99.90;;;;;;5042106;28;20044;-76
2023/09/08 02:12:04;;;;;;;11.07;9.20;;;18.60;99.90;;;;;;5064963;28;20055;-74
2023/09/08 02:14:30;;;;;;;11.48;8.45;;;18.60;99.90;;;;;;5060962;28;20051;-75
2023/09/08 02:16:56;;;;;;;10.27;8.57;;;18.50;99.90;;;;;;5068317;28;20128;-75
2023/09/08 02:19:22;;;;;;;10.80;8.57;;;18.50;99.90;;;;;;5057888;28;20491;-75
2023/09/08 02:21:48;;;;;;;13.25;9.15;;;18.50;99.90;;;;;;5065965;28;20037;-75
2023/09/08 02:24:14;;;;;;;11.27;8.85;;;18.40;99.90;;;;;;5062057;28;20432;-75
2023/09/08 02:26:39;;;;;;;10.82;9.13;;;18.40;99.90;;;;;;5065794;28;20131;-74
2023/09/08 02:29:05;;;;;;;10.05;8.90;;;18.30;99.90;;;;;;5057380;28;20041;-74
2023/09/08 02:31:34;;;;;;;11.30;8.52;;;18.30;99.90;;;;;;5070255;28;20045;-75
2023/09/08 02:34:00;;;;;;;11.25;8.55;;;18.30;99.90;;;;;;5059556;28;20045;-75
2023/09/08 02:36:26;;;;;;;11.43;8.98;;;18.20;99.90;;;;;;5064382;28;20044;-75
2023/09/08 02:38:56;;;;;;;13.35;8.85;;;18.20;99.90;;;;;;5058162;28;20131;-75
2023/09/08 02:41:22;;;;;;;11.27;8.80;;;18.20;99.90;;;;;;5059736;28;20053;-75
2023/09/08 02:43:48;;;;;;;10.82;8.93;;;18.10;99.90;;;;;;5052357;28;20049;-75
2023/09/08 02:46:14;;;;;;;10.07;8.90;;;18.10;99.90;;;;;;5051014;28;20116;-75
2023/09/08 02:48:40;;;;;;;11.00;8.68;;;18.10;99.90;;;;;;5053375;28;20544;-75
2023/09/08 02:51:06;;;;;;;12.57;9.30;;;18.00;99.90;;;;;;5051201;28;20416;-75
2023/09/08 02:53:32;;;;;;;10.70;9.00;;;18.00;99.90;;;;;;5048912;28;20055;-75
2023/09/08 02:55:58;;;;;;;15.05;10.25;;;17.90;99.90;;;;;;5047639;28;20149;-75
2023/09/08 02:58:24;;;;;;;10.25;8.57;;;17.90;99.90;;;;;;5054508;28;20049;-75
2023/09/08 03:00:51;;;;;;;11.82;9.63;;;17.90;99.90;;;;;;5055450;28;20045;-75
2023/09/08 03:03:18;;;;;;;11.43;9.57;;;17.80;99.90;;;;;;5067610;28;20076;-75
2023/09/08 03:05:43;;;;;;;11.57;9.32;;;17.70;99.90;;;;;;5060286;28;20059;-75
2023/09/08 03:08:09;;;;;;;12.27;8.82;;;17.70;99.90;;;;;;5061616;28;20484;-75
2023/09/08 03:10:35;;;;;;;13.02;9.20;;;17.60;99.90;;;;;;5053534;28;20129;-76
2023/09/08 03:13:01;;;;;;;10.18;9.02;;;17.60;99.90;;;;;;5069502;28;20044;-75
2023/09/08 03:15:28;;;;;;;10.95;9.00;;;17.60;99.90;;;;;;5056782;28;20040;-75
2023/09/08 03:18:00;;;;;;;11.45;10.15;;;17.50;99.90;;;;;;5062762;28;20063;-75
2023/09/08 03:20:28;;;;;;;12.68;9.50;;;17.50;99.90;;;;;;5053719;28;20053;-75
2023/09/08 03:22:54;;;;;;;15.45;9.95;;;17.50;99.90;;;;;;5068017;28;20055;-75
2023/09/08 03:25:20;;;;;;;12.43;10.05;;;17.50;99.90;;;;;;5055257;28;20029;-75
2023/09/08 03:27:45;;;;;;;13.23;10.05;;;17.50;99.90;;;;;;5061975;28;20116;-75
2023/09/08 03:30:11;;;;;;;11.18;9.63;;;17.40;99.90;;;;;;5060333;28;20053;-75
2023/09/08 03:32:37;;;;;;;12.13;10.10;;;17.40;99.90;;;;;;5067515;28;20074;-75
2023/09/08 03:35:07;;;;;;;13.32;10.20;;;17.40;99.90;;;;;;5055800;28;20045;-75
2023/09/08 03:37:34;;;;;;;14.13;10.23;;;17.30;99.90;;;;;;5062644;28;20048;-75
2023/09/08 03:40:00;;;;;;;11.43;10.07;;;17.30;99.90;;;;;;5061997;28;20729;-75
2023/09/08 03:42:25;;;;;;;13.48;9.75;;;17.30;99.90;;;;;;5065462;28;20052;-75
2023/09/08 03:44:51;;;;;;;12.45;9.82;;;17.30;99.90;;;;;;5053703;28;20061;-75
2023/09/08 03:47:17;;;;;;;13.10;10.20;;;17.30;99.90;;;;;;5061921;28;20582;-75
2023/09/08 03:49:42;;;;;;;11.90;10.05;;;17.30;99.90;;;;;;5065900;28;20384;-75
2023/09/08 03:52:08;;;;;;;15.45;10.63;;;17.30;99.90;;;;;;5060578;28;20135;-75
2023/09/08 03:54:34;;;;;;;12.93;10.13;;;17.30;99.90;;;;;;5057032;28;20053;-75
2023/09/08 03:57:05;;;;;;;12.20;9.65;;;17.40;99.90;;;;;;5057628;28;20052;-75
2023/09/08 03:59:31;;;;;;;12.85;10.10;;;17.40;99.90;;;;;;5050072;28;20045;-75
2023/09/08 04:01:57;;;;;;;12.75;10.07;;;17.50;99.90;;;;;;5050320;28;20385;-75
2023/09/08 04:04:26;;;;;;;12.85;10.68;;;17.50;99.90;;;;;;5048050;28;20079;-75
2023/09/08 04:06:51;;;;;;;13.18;9.95;;;17.50;99.90;;;;;;5049809;28;20099;-75
2023/09/08 04:09:17;;;;;;;12.80;10.32;;;17.50;99.90;;;;;;5049291;28;20439;-75
2023/09/08 04:11:42;;;;;;;13.68;10.65;;;17.50;99.90;;;;;;5049559;28;20060;-75
2023/09/08 04:14:08;;;;;;;14.52;10.98;;;17.50;99.90;;;;;;5049562;28;20492;-75
2023/09/08 04:16:34;;;;;;;12.07;9.98;;;17.50;99.90;;;;;;5048450;28;20373;-75
2023/09/08 04:18:59;;;;;;;13.02;9.95;;;17.40;99.90;;;;;;5049056;28;20055;-75
2023/09/08 04:21:25;;;;;;;13.00;10.55;;;17.40;99.90;;;;;;5045514;28;20041;-75
2023/09/08 04:23:51;;;;;;;13.30;10.27;;;17.40;99.90;;;;;;5051148;28;20052;-75
2023/09/08 04:26:16;;;;;;;13.57;10.50;;;17.50;99.90;;;;;;5048177;28;20033;-75
2023/09/08 04:28:42;;;;;;;11.77;10.43;;;17.50;99.90;;;;;;5046617;28;20048;-75
2023/09/08 04:31:07;;;;;;;13.38;10.50;;;17.50;99.90;;;;;;5049388;28;20049;-76
2023/09/08 04:33:33;;;;;;;12.75;10.25;;;17.40;99.90;;;;;;5047429;28;20041;-75
2023/09/08 04:35:59;;;;;;;13.98;10.27;;;17.40;99.90;;;;;;5046538;28;20052;-74
2023/09/08 04:38:24;;;;;;;12.82;10.73;;;17.40;99.90;;;;;;5048175;28;20052;-75
2023/09/08 04:40:50;;;;;;;12.80;10.13;;;17.40;99.90;;;;;;5047721;28;20427;-75
2023/09/08 04:43:16;;;;;;;14.63;10.23;;;17.40;99.90;;;;;;5048864;28;20514;-75
2023/09/08 04:45:44;;;;;;;11.93;10.00;;;17.40;99.90;;;;;;5047349;28;20064;-75
2023/09/08 04:48:10;;;;;;;13.73;10.55;;;17.40;99.90;;;;;;5049651;28;20037;-77
2023/09/08 04:50:36;;;;;;;14.30;10.10;;;17.40;99.90;;;;;;5049420;28;20090;-77
2023/09/08 04:53:01;;;;;;;13.98;11.02;;;17.40;99.90;;;;;;5047308;28;20048;-80
2023/09/08 04:55:27;;;;;;;15.15;10.85;;;17.40;99.90;;;;;;5052837;28;20393;-79
2023/09/08 04:57:53;;;;;;;12.60;10.30;;;17.40;99.90;;;;;;5048010;28;20538;-76
2023/09/08 05:00:18;;;;;;;13.07;10.40;;;17.30;99.90;;;;;;5047506;28;20495;-78
2023/09/08 05:02:44;;;;;;;16.80;10.50;;;17.30;99.90;;;;;;5046933;28;20416;-76
2023/09/08 05:05:10;;;;;;;12.88;10.30;;;17.30;99.90;;;;;;5048596;28;20045;-76
2023/09/08 05:07:36;;;;;;;15.32;11.18;;;17.30;99.90;;;;;;5046381;28;20057;-80
2023/09/08 05:10:02;;;;;;;15.40;10.70;;;17.30;99.90;;;;;;5044801;28;20033;-77
2023/09/08 05:12:28;;;;;;;14.60;10.73;;;17.30;99.90;;;;;;5042865;28;20566;-77
2023/09/08 05:14:56;;;;;;;16.13;10.80;;;17.30;99.90;;;;;;5041726;28;20041;-77
2023/09/08 05:17:24;;;;;;;12.25;10.90;;;17.30;99.90;;;;;;5041235;28;20049;-76
2023/09/08 05:19:49;;;;;;;13.15;11.10;;;17.30;99.90;;;;;;5042982;28;20502;-74
2023/09/08 05:22:15;;;;;;;14.43;11.10;;;17.40;99.90;;;;;;5046032;28;20128;-76
2023/09/08 05:24:41;;;;;;;13.57;10.65;;;17.40;99.90;;;;;;5040191;28;20500;-76
2023/09/08 05:27:06;;;;;;;12.93;10.52;;;17.40;99.90;;;;;;5059776;28;20045;-76
2023/09/08 05:29:32;;;;;;;13.93;10.90;;;17.40;99.90;;;;;;5063762;28;20446;-73
2023/09/08 05:32:00;;;;;;;16.23;11.57;;;17.40;99.90;;;;;;5066100;28;20094;-73
2023/09/08 05:34:26;;;;;;;15.80;11.57;;;17.40;99.90;;;;;;5055612;28;20095;-73
2023/09/08 05:36:51;;;;;;;13.05;10.90;;;17.40;99.90;;;;;;5065386;28;20076;-73
2023/09/08 05:39:19;;;;;;;14.45;10.70;;;17.40;99.90;;;;;;5056897;28;20053;-73
2023/09/08 05:41:45;;;;;;;13.68;11.07;;;17.40;99.90;;;;;;5070267;28;20128;-74
2023/09/08 05:44:11;;;;;;;14.70;11.25;;;17.40;99.90;;;;;;5060690;28;20055;-73
2023/09/08 05:46:36;;;;;;;14.00;10.98;;;17.50;99.90;;;;;;5068546;28;20056;-73
2023/09/08 05:49:02;;;;;;;14.10;10.98;;;17.50;99.90;;;;;;5056245;28;20041;-73
2023/09/08 05:51:28;;;;;;;14.85;11.27;;;17.50;99.90;;;;;;5068813;28;20523;-73
2023/09/08 05:53:53;;;;;;;14.35;10.68;;;17.50;99.90;;;;;;5043264;28;20048;-73
2023/09/08 05:56:19;;;;;;;12.32;10.55;;;17.60;99.90;;;;;;5063295;28;20033;-74
2023/09/08 05:58:45;;;;;;;12.95;10.75;;;17.60;99.90;;;;;;5057148;28;20052;-73
2023/09/08 06:01:11;;;;;;;14.68;11.40;;;17.60;99.90;;;;;;5068542;28;20056;-73
2023/09/08 06:03:37;;;;;;;12.55;10.35;;;17.70;99.90;;;;;;5057246;28;20048;-72
2023/09/08 06:06:02;;;;;;;14.63;10.82;;;17.80;99.90;;;;;;5066424;28;20045;-73
2023/09/08 06:08:28;;;;;;;13.23;10.75;;;17.80;99.90;;;;;;5052079;28;20146;-73
2023/09/08 06:10:54;;;;;;;14.85;11.00;;;17.80;99.90;;;;;;5047821;28;20662;-73
2023/09/08 06:13:19;;;;;;;14.07;11.15;;;17.80;99.90;;;;;;5053691;28;20076;-74
2023/09/08 06:15:45;;;;;;;17.40;11.63;;;17.90;99.90;;;;;;5050973;28;20044;-76
2023/09/08 06:18:11;;;;;;;14.23;11.48;;;17.90;99.90;;;;;;5048794;28;20552;-74
2023/09/08 06:20:43;;;;;;;14.98;11.70;;;17.90;99.90;;;;;;5052733;28;20180;-73
2023/09/08 06:23:09;;;;;;;14.85;11.02;;;18.00;99.90;;;;;;5063031;28;20123;-73
2023/09/08 06:25:35;;;;;;;13.98;11.45;;;18.00;99.90;;;;;;5056879;28;20185;-73
2023/09/08 06:28:01;;;;;;;15.57;10.90;;;18.00;99.90;;;;;;5058650;28;20063;-72
2023/09/08 06:30:27;;;;;;;15.20;11.60;;;18.10;99.90;;;;;;5059856;28;20472;-77
2023/09/08 06:32:55;;;;;;;13.63;11.73;;;18.10;99.90;;;;;;5059761;28;20499;-73
2023/09/08 06:35:21;;;;;;;14.90;11.60;;;18.10;99.90;;;;;;5064215;28;20048;-76
2023/09/08 06:37:46;;;;;;;14.77;11.55;;;18.20;99.90;;;;;;5066291;28;20128;-72
2023/09/08 06:40:12;;;;;;;20.27;11.95;;;18.30;99.90;;;;;;5052061;28;20045;-72
2023/09/08 06:42:38;;;;;;;15.00;10.80;;;18.30;99.90;;;;;;5067707;28;20048;-74
2023/09/08 06:45:04;;;;;;;14.15;11.07;;;18.40;99.90;;;;;;5055430;28;20045;-78
2023/09/08 06:47:29;;;;;;;16.20;11.82;;;18.40;99.90;;;;;;5067778;28;20059;-78
2023/09/08 06:49:55;;;;;;;16.10;11.20;;;18.40;99.90;;;;;;5061351;28;20033;-79
2023/09/08 06:52:21;;;;;;;18.05;12.10;;;18.40;99.90;;;;;;5066279;28;20098;-82
2023/09/08 06:54:46;;;;;;;15.38;11.60;;;18.50;99.90;;;;;;5056410;28;20094;-83
2023/09/08 06:57:19;;;;;;;15.50;11.65;;;18.60;99.90;;;;;;5068783;28;20439;-80
2023/09/08 06:59:45;;;;;;;16.83;11.43;;;18.70;99.90;;;;;;5060932;28;20091;-83
2023/09/08 07:02:11;;;;;;;15.95;11.63;;;18.80;99.90;;;;;;5061416;28;20471;-79
2023/09/08 07:04:37;;;;;;;16.58;11.90;;;18.90;99.90;;;;;;5058377;28;20072;-81
2023/09/08 07:07:06;;;;;;;14.57;11.68;;;18.90;99.90;;;;;;5069553;28;20076;-82
2023/09/08 07:09:36;;;;;;;17.17;11.27;;;18.90;99.90;;;;;;5061289;28;20052;-80
2023/09/08 07:12:06;;;;;;;14.60;10.98;;;19.00;99.90;;;;;;5062102;28;20045;-81
2023/09/08 07:14:32;;;;;;;15.50;12.20;;;19.00;99.90;;;;;;5059638;28;20386;-80
2023/09/08 07:16:58;;;;;;;12.63;11.32;;;19.10;99.90;;;;;;5067163;28;20069;-80
2023/09/08 07:19:23;;;;;;;13.07;11.23;;;19.20;99.90;;;;;;5042005;28;20040;-81
2023/09/08 07:21:49;;;;;;;14.93;10.68;;;19.40;99.90;;;;;;5064513;28;20048;-82
2023/09/08 07:24:15;;;;;;;14.43;11.75;;;20.20;99.90;;;;;;5062449;28;20060;-82
2023/09/08 07:26:40;;;;;;;12.43;10.77;;;21.60;99.90;;;;;;5057417;28;20091;-82
2023/09/08 07:29:06;;;;;;;14.30;10.70;;;23.10;99.90;;;;;;5059775;28;20060;-80
2023/09/08 07:31:32;;;;;;;11.23;9.98;;;24.20;99.90;;;;;;5067337;28;20116;-80
2023/09/08 07:33:57;;;;;;;11.60;9.38;;;25.20;99.90;;;;;;5060273;28;20044;-80
2023/09/08 07:36:23;;;;;;;12.63;10.18;;;26.00;99.00;;;;;;5063249;28;20076;-78
2023/09/08 07:38:52;;;;;;;12.57;9.75;;;26.50;99.10;;;;;;5052320;28;20045;-79
2023/09/08 07:41:17;;;;;;;11.80;10.60;;;27.10;98.10;;;;;;5067271;28;20143;-78
2023/09/08 07:43:45;;;;;;;11.90;9.90;;;27.60;97.00;;;;;;5048980;28;20149;-78
2023/09/08 07:46:11;;;;;;;11.32;9.63;;;28.00;96.10;;;;;;5052772;28;20127;-84
2023/09/08 07:48:37;;;;;;;10.60;9.30;;;28.50;95.50;;;;;;5049700;28;20132;-83
2023/09/08 07:51:02;;;;;;;10.98;9.25;;;28.90;95.60;;;;;;5048254;28;20516;-79
2023/09/08 07:53:28;;;;;;;10.85;9.48;;;29.30;94.30;;;;;;5050358;28;20087;-80
2023/09/08 07:55:54;;;;;;;13.43;9.35;;;29.70;94.20;;;;;;5050747;28;20060;-79
2023/09/08 07:58:19;;;;;;;13.15;9.63;;;30.10;93.70;;;;;;5050004;28;20654;-82
2023/09/08 08:00:45;;;;;;;11.85;9.27;;;30.60;93.70;;;;;;5049065;28;20060;-82
2023/09/08 08:03:11;;;;;;;9.90;8.90;;;30.90;92.80;;;;;;5052833;28;20435;-79
2023/09/08 08:05:36;;;;;;;9.90;8.80;;;31.40;91.70;;;;;;5048804;28;20099;-76
2023/09/08 08:08:02;;;;;;;13.43;9.07;;;31.50;91.30;;;;;;5045586;28;20051;-79
2023/09/08 08:10:28;;;;;;;10.48;8.85;;;31.50;91.60;;;;;;5050758;28;20091;-79
2023/09/08 08:12:54;;;;;;;10.65;8.95;;;31.80;91.70;;;;;;5047205;28;20098;-74
2023/09/08 08:15:34;;;;;;;10.65;8.93;;;32.50;91.50;;;;;;5047345;28;20049;-74
2023/09/08 08:17:59;;;;;;;11.32;9.07;;;32.90;90.50;;;;;;5040052;28;20159;-74
2023/09/08 08:20:28;;;;;;;11.07;8.90;;;33.10;90.10;;;;;;5052508;28;20033;-76
2023/09/08 08:22:53;;;;;;;11.45;8.93;;;33.30;89.70;;;;;;5049307;28;20048;-77
2023/09/08 08:25:19;;;;;;;10.07;9.05;;;33.30;90.10;;;;;;5047157;28;20043;-75
2023/09/08 08:27:45;;;;;;;11.07;8.85;;;33.40;89.30;;;;;;5049324;28;20128;-79
2023/09/08 08:30:11;;;;;;;11.85;9.02;;;33.50;89.10;;;;;;5049665;28;20083;-77
2023/09/08 08:32:36;;;;;;;11.27;8.65;;;33.90;88.60;;;;;;5046763;28;20132;-82
2023/09/08 08:35:05;;;;;;;11.55;8.25;;;33.90;88.40;;;;;;5049330;28;20037;-76
2023/09/08 08:37:31;;;;;;;12.15;8.98;;;33.80;88.60;;;;;;5049195;28;20076;-75
2023/09/08 08:39:57;;;;;;;10.80;9.38;;;33.90;88.80;;;;;;5049337;28;20461;-79
2023/09/08 08:42:22;;;;;;;10.70;8.75;;;34.20;87.20;;;;;;5046917;28;20048;-79
2023/09/08 08:44:49;;;;;;;10.80;8.90;;;34.20;87.70;;;;;;5048993;28;20103;-89
2023/09/08 08:47:16;;;;;;;12.18;9.02;;;34.30;87.40;;;;;;5051169;28;20103;-76
2023/09/08 08:49:46;;;;;;;10.80;8.35;;;34.40;87.10;;;;;;5050202;28;20029;-74
2023/09/08 08:52:14;;;;;;;10.75;8.90;;;34.30;87.20;;;;;;5049633;28;20481;-73
2023/09/08 08:54:40;;;;;;;10.27;8.35;;;34.60;87.80;;;;;;5050554;28;20159;-73
2023/09/08 08:57:06;;;;;;;10.00;8.70;;;34.90;88.00;;;;;;5047934;28;20040;-72
2023/09/08 08:59:32;;;;;;;12.98;8.75;;;35.30;86.40;;;;;;5051072;28;20477;-72
2023/09/08 09:02:03;;;;;;;12.55;8.55;;;35.30;86.90;;;;;;5055412;28;20051;-72
2023/09/08 09:04:29;;;;;;;10.65;8.35;;;35.60;85.70;;;;;;5053529;28;20083;-73
2023/09/08 09:06:55;;;;;;;9.43;8.45;;;36.20;85.20;;;;;;5050876;28;20080;-75
2023/09/08 09:09:22;;;;;;;12.55;8.70;;;36.30;84.50;;;;;;5053845;28;20083;-74
2023/09/08 09:11:48;;;;;;;10.00;8.02;;;36.40;83.90;;;;;;5052297;28;20048;-73
2023/09/08 09:14:14;;;;;;;11.00;7.75;;;36.40;83.40;;;;;;5055058;28;20545;-72
2023/09/08 09:16:44;;;;;;;9.93;8.20;;;36.40;85.20;;;;;;5052613;28;20113;-73
2023/09/08 09:19:18;;;;;;;13.45;8.73;;;36.10;84.60;;;;;;5052074;28;20046;-73
2023/09/08 09:21:51;;;;;;;11.48;7.88;;;36.30;84.00;;;;;;5069662;28;20041;-73
2023/09/08 09:24:27;;;;;;;10.13;8.70;;;36.30;83.50;;;;;;5060639;28;20090;-72
2023/09/08 09:26:53;;;;;;;11.98;8.95;;;35.80;84.00;;;;;;5055604;28;20040;-72
2023/09/08 09:29:19;;;;;;;9.88;8.10;;;36.50;83.40;;;;;;5053530;28;20449;-72
2023/09/08 09:31:56;;;;;;;10.02;8.45;;;36.50;84.20;;;;;;5057252;28;20045;-73
2023/09/08 09:34:22;;;;;;;10.13;9.02;;;36.80;83.10;;;;;;5052277;28;20052;-73
2023/09/08 09:36:51;;;;;;;10.25;8.63;;;36.80;82.60;;;;;;5049679;28;20041;-73
2023/09/08 09:39:21;;;;;;;11.07;9.43;;;36.60;83.30;;;;;;5054638;28;20446;-73
2023/09/08 09:41:48;;;;;;;10.80;9.10;;;37.10;82.60;;;;;;5051272;28;20048;-73
2023/09/08 09:44:14;;;;;;;11.85;9.05;;;37.00;83.00;;;;;;5050101;28;20056;-73
2023/09/08 09:46:45;;;;;;;12.35;9.45;;;37.20;82.20;;;;;;5051863;28;20124;-73
2023/09/08 09:49:16;;;;;;;9.88;8.88;;;37.10;81.60;;;;;;5051363;28;20433;-74
2023/09/08 09:51:53;;;;;;;10.45;9.10;;;36.80;82.10;;;;;;5050108;28;20052;-74
2023/09/08 09:54:19;;;;;;;11.27;9.45;;;36.70;83.00;;;;;;5050204;28;20651;-72
2023/09/08 09:56:46;;;;;;;11.15;9.55;;;36.50;82.60;;;;;;5051657;28;20083;-72
2023/09/08 09:59:13;;;;;;;12.25;9.50;;;36.30;82.50;;;;;;5052296;28;20041;-72
2023/09/08 10:01:40;;;;;;;11.00;9.52;;;36.20;83.20;;;;;;5049465;28;20045;-73
2023/09/08 10:04:06;;;;;;;11.57;8.60;;;36.00;83.60;;;;;;5053981;28;20048;-71
2023/09/08 10:06:33;;;;;;;10.85;9.43;;;36.00;84.00;;;;;;5050875;28;20037;-72
2023/09/08 10:09:13;;;;;;;12.55;9.40;;;36.30;83.90;;;;;;5050312;28;20076;-73
2023/09/08 10:11:44;;;;;;;10.90;9.75;;;36.50;83.70;;;;;;5047151;28;20060;-73
2023/09/08 10:14:11;;;;;;;12.80;10.35;;;36.80;83.50;;;;;;5052787;28;20033;-73
2023/09/08 10:16:39;;;;;;;13.75;9.88;;;36.90;83.20;;;;;;5050469;28;20068;-72
2023/09/08 10:19:10;;;;;;;12.07;10.05;;;37.00;82.10;;;;;;5047289;28;20419;-73
2023/09/08 10:21:46;;;;;;;14.02;11.20;;;37.00;82.30;;;;;;5050382;28;20049;-73
2023/09/08 10:24:32;;;;;;;12.27;10.27;;;37.10;81.90;;;;;;5052617;28;20072;-73
2023/09/08 10:27:04;;;;;;;12.13;10.25;;;37.00;82.70;;;;;;5050074;28;20053;-74
2023/09/08 10:29:31;;;;;;;11.82;10.30;;;37.20;82.20;;;;;;5050884;28;20499;-74
2023/09/08 10:31:58;;;;;;;12.98;10.45;;;37.10;82.10;;;;;;5050702;28;20056;-73
2023/09/08 10:34:25;;;;;;;13.93;10.18;;;36.60;82.60;;;;;;5051569;28;20072;-74
2023/09/08 10:36:52;;;;;;;13.68;10.15;;;36.90;82.70;;;;;;5052231;28;20052;-74
2023/09/08 10:39:41;;;;;;;12.35;9.98;;;37.00;83.50;;;;;;5051078;28;20132;-74
2023/09/08 10:42:16;;;;;;;16.58;11.82;;;36.60;84.20;;;;;;5051348;28;20492;-74
2023/09/08 10:44:49;;;;;;;12.85;11.55;;;36.90;83.40;;;;;;5053897;28;20067;-75
2023/09/08 10:47:18;;;;;;;16.48;13.20;;;37.10;83.00;;;;;;5050774;28;20045;-75
2023/09/08 10:49:45;;;;;;;13.63;12.00;;;36.90;83.10;;;;;;5049262;28;20076;-74
2023/09/08 10:52:12;;;;;;;14.15;10.93;;;36.60;84.00;;;;;;5050724;28;20033;-74
2023/09/08 10:54:43;;;;;;;13.90;11.00;;;37.10;83.60;;;;;;5050194;28;20045;-74
2023/09/08 10:57:17;;;;;;;13.13;11.15;;;37.10;83.60;;;;;;5049723;28;20057;-74
2023/09/08 11:00:11;;;;;;;17.05;10.57;;;36.80;83.90;;;;;;5051960;28;20041;-74
2023/09/08 11:02:42;;;;;;;15.48;11.63;;;36.90;83.20;;;;;;5053006;28;20037;-74
2023/09/08 11:05:10;;;;;;;11.10;10.00;;;36.70;84.20;;;;;;5051279;28;20037;-74
2023/09/08 11:07:37;;;;;;;12.98;9.93;;;37.10;83.60;;;;;;5046704;28;20044;-72
2023/09/08 11:10:04;;;;;;;14.52;11.95;;;37.30;83.20;;;;;;5055733;28;20053;-73
2023/09/08 11:12:30;;;;;;;14.60;11.10;;;37.40;82.90;;;;;;5047934;28;20037;-72
2023/09/08 11:14:56;;;;;;;14.30;11.38;;;37.30;83.70;;;;;;5039836;28;20041;-72
2023/09/08 11:17:26;;;;;;;14.77;10.20;;;37.30;83.50;;;;;;5035837;28;20056;-72
2023/09/08 11:19:52;;;;;;;12.38;9.10;;;37.50;83.10;;;;;;5041581;28;20048;-73
2023/09/08 11:22:18;;;;;;;12.63;9.98;;;37.50;83.00;;;;;;5038871;28;20053;-76
2023/09/08 11:24:44;;;;;;;13.90;9.48;;;37.50;82.90;;;;;;5043182;28;20036;-73
2023/09/08 11:27:11;;;;;;;10.80;9.50;;;37.50;84.00;;;;;;5047171;28;20041;-73
2023/09/08 11:29:40;;;;;;;15.30;9.25;;;37.50;82.80;;;;;;5042123;28;20115;-73
2023/09/08 11:32:07;;;;;;;11.00;8.68;;;37.20;83.30;;;;;;5048277;28;20045;-74
2023/09/08 11:34:37;;;;;;;10.60;8.60;;;37.30;82.30;;;;;;5043199;28;20074;-71
2023/09/08 11:37:14;;;;;;;9.77;7.32;;;37.20;82.80;;;;;;5050458;28;20128;-74
2023/09/08 11:39:47;;;;;;;9.55;7.75;;;37.40;82.50;;;;;;5081574;27;20135;-72
2023/09/08 11:42:14;;;;;;;9.48;8.00;;;37.60;82.40;;;;;;5064445;28;20507;-70
2023/09/08 11:44:41;;;;;;;10.10;8.40;;;37.60;82.00;;;;;;5087375;28;20475;-72
2023/09/08 11:47:09;;;;;;;13.35;9.63;;;37.30;82.80;;;;;;5080196;28;20118;-74
2023/09/08 11:49:39;;;;;;;10.00;8.35;;;37.50;81.60;;;;;;5061493;28;20123;-73
2023/09/08 11:52:06;;;;;;;12.20;8.40;;;37.30;82.60;;;;;;5064867;28;20926;-72
2023/09/08 11:54:33;;;;;;;10.55;8.05;;;37.10;83.30;;;;;;5068417;28;20118;-71
2023/09/08 11:57:04;;;;;;;11.55;8.05;;;37.30;83.10;;;;;;5081912;28;20048;-72
2023/09/08 11:59:32;;;;;;;9.75;7.45;;;37.40;81.60;;;;;;5082800;28;20072;-73
2023/09/08 12:01:58;;;;;;;9.18;7.00;;;37.20;83.40;;;;;;5086548;28;20541;-73
2023/09/08 12:04:24;;;;;;;8.73;6.30;;;37.20;82.00;;;;;;5060276;28;20048;-73
2023/09/08 12:06:53;;;;;;;9.25;5.93;;;37.00;82.50;;;;;;5061944;28;20742;-73
2023/09/08 12:09:20;;;;;;;6.75;5.22;;;37.00;82.20;;;;;;5082502;28;20048;-73
2023/09/08 12:11:46;;;;;;;6.22;5.50;;;37.10;81.80;;;;;;5060797;28;20079;-72
2023/09/08 12:14:13;;;;;;;7.97;5.72;;;37.40;80.80;;;;;;5080473;28;20123;-71
2023/09/08 12:16:43;;;;;;;6.70;5.15;;;37.20;82.00;;;;;;5081642;28;20040;-71
2023/09/08 12:19:29;;;;;;;6.82;5.28;;;37.30;81.80;;;;;;5086142;28;20101;-71
2023/09/08 12:21:57;;;;;;;6.03;5.20;;;37.00;82.00;;;;;;5063209;28;20049;-73
2023/09/08 12:24:55;;;;;;;5.53;4.93;;;37.00;83.10;;;;;;5080181;28;20040;-73
2023/09/08 12:27:21;;;;;;;6.57;5.88;;;37.40;82.90;;;;;;5079851;28;20067;-72
2023/09/08 12:29:57;;;;;;;8.13;5.55;;;37.20;81.90;;;;;;5065776;28;20135;-72
2023/09/08 12:32:26;;;;;;;6.60;5.60;;;37.10;82.50;;;;;;5063248;28;20049;-72
2023/09/08 12:34:52;;;;;;;7.93;5.70;;;37.00;82.30;;;;;;5058299;28;20094;-72